Time;durP1;ratioP1;P1;durP2;ratioP2;P2;SDS_P1;SDS_P2;PMS_P1;PMS_P2;Temp;Humidity;BMP_temperature;BMP_pressure;BME280_temperature;BME280_humidity;BME280_pressure;Samples;Min_cycle;Max_cycle;Signal;HPM_P1;HPM_P2
2022/08/28 00:01:39;;;;;;;65.87;8.43;;;;;;;;;;5075334;28;20458;-70
2022/08/28 00:04:06;;;;;;;69.07;8.70;;;;;;;;;;5076188;28;20537;-70
2022/08/28 00:06:33;;;;;;;64.50;8.73;;;;;;;;;;5075052;28;20483;-70
2022/08/28 00:09:00;;;;;;;69.07;10.10;;;;;;;;;;5074844;28;20538;-70
2022/08/28 00:11:28;;;;;;;65.20;7.57;;;;;;;;;;5074940;28;20453;-70
2022/08/28 00:13:57;;;;;;;64.63;7.77;;;;;;;;;;5074703;28;20554;-71
2022/08/28 00:16:24;;;;;;;64.17;8.90;;;;;;;;;;5074979;28;20447;-70
2022/08/28 00:18:51;;;;;;;65.27;9.07;;;;;;;;;;5074577;28;20522;-69
2022/08/28 00:21:19;;;;;;;68.27;9.10;;;;;;;;;;5074199;28;20447;-70
2022/08/28 00:23:46;;;;;;;67.00;9.43;;;;;;;;;;5074319;28;20472;-70
2022/08/28 00:27:51;;;;;;;69.10;10.17;;;;;;;;;;5074140;28;20522;-70
2022/08/28 00:29:00;;;;;;;67.60;10.53;;;;;;;;;;5073768;28;20447;-70
2022/08/28 00:31:28;;;;;;;67.63;9.03;;;;;;;;;;5073902;28;20944;-69
2022/08/28 00:33:55;;;;;;;65.80;9.43;;;;;;;;;;5074452;28;20486;-70
2022/08/28 00:36:22;;;;;;;65.80;8.43;;;;;;;;;;5074089;28;20542;-69
2022/08/28 00:38:49;;;;;;;68.27;9.70;;;;;;;;;;5073825;28;20516;-70
2022/08/28 00:41:17;;;;;;;66.50;9.73;;;;;;;;;;5074051;28;20462;-70
2022/08/28 00:43:45;;;;;;;64.67;7.60;;;;;;;;;;5074038;28;20475;-69
2022/08/28 00:46:14;;;;;;;65.70;9.73;;;;;;;;;;5074050;28;20453;-70
2022/08/28 00:48:42;;;;;;;67.00;8.77;;;;;;;;;;5073447;28;20505;-70
2022/08/28 00:53:55;;;;;;;65.77;9.27;;;;;;;;;;5073963;28;20485;-70
2022/08/28 00:56:22;;;;;;;65.97;9.43;;;;;;;;;;5073969;28;20542;-70
2022/08/28 00:58:51;;;;;;;64.80;7.70;;;;;;;;;;5073312;28;20451;-70
2022/08/28 01:01:20;;;;;;;67.47;9.57;;;;;;;;;;5072670;28;20543;-68
2022/08/28 01:03:47;;;;;;;67.37;9.20;;;;;;;;;;5072834;28;20475;-70
2022/08/28 01:06:15;;;;;;;67.10;8.40;;;;;;;;;;5073313;28;20966;-70
2022/08/28 01:08:44;;;;;;;66.00;8.37;;;;;;;;;;5073196;28;20838;-70
2022/08/28 01:11:12;;;;;;;65.30;8.60;;;;;;;;;;5073787;28;20455;-70
2022/08/28 01:13:40;;;;;;;66.23;8.97;;;;;;;;;;5073921;28;20470;-70
2022/08/28 01:16:08;;;;;;;66.87;9.33;;;;;;;;;;5073248;28;20462;-70
2022/08/28 01:18:37;;;;;;;66.80;8.50;;;;;;;;;;5072304;28;20450;-69
2022/08/28 01:21:08;;;;;;;64.77;8.10;;;;;;;;;;5073023;28;20451;-69
2022/08/28 01:23:50;;;;;;;87.30;10.13;;;;;;;;;;5072785;28;20554;-69
2022/08/28 01:26:17;;;;;;;65.33;8.40;;;;;;;;;;5072722;28;20447;-69
2022/08/28 01:28:45;;;;;;;68.80;8.67;;;;;;;;;;5072555;28;20489;-70
2022/08/28 01:31:13;;;;;;;63.60;7.83;;;;;;;;;;5073133;28;20455;-70
2022/08/28 01:33:41;;;;;;;67.30;9.10;;;;;;;;;;5072640;28;20511;-70
2022/08/28 01:36:09;;;;;;;63.20;7.40;;;;;;;;;;5072867;28;20487;-70
2022/08/28 01:38:37;;;;;;;64.93;8.40;;;;;;;;;;5072451;28;20448;-70
2022/08/28 01:41:05;;;;;;;65.50;7.60;;;;;;;;;;5072515;28;20443;-70
2022/08/28 01:43:33;;;;;;;64.70;8.30;;;;;;;;;;5072959;28;20479;-69
2022/08/28 01:46:01;;;;;;;64.97;8.77;;;;;;;;;;5072590;28;20958;-69
2022/08/28 01:48:29;;;;;;;66.40;9.40;;;;;;;;;;5072551;28;20483;-70
2022/08/28 01:50:56;;;;;;;75.33;9.20;;;;;;;;;;5072531;28;20451;-70
2022/08/28 01:53:24;;;;;;;68.10;10.17;;;;;;;;;;5072400;28;20469;-71
2022/08/28 01:55:52;;;;;;;65.80;7.97;;;;;;;;;;5072882;28;20443;-71
2022/08/28 01:58:21;;;;;;;66.47;7.53;;;;;;;;;;5072584;28;20530;-71
2022/08/28 02:00:48;;;;;;;64.73;7.40;;;;;;;;;;5070644;28;20444;-70
2022/08/28 02:03:15;;;;;;;64.77;8.10;;;;;;;;;;5072399;28;20474;-70
2022/08/28 02:05:42;;;;;;;69.33;7.60;;;;;;;;;;5072278;28;20534;-70
2022/08/28 02:08:10;;;;;;;65.73;7.57;;;;;;;;;;5072289;28;20570;-71
2022/08/28 02:10:38;;;;;;;80.90;8.13;;;;;;;;;;5072278;28;21062;-70
2022/08/28 02:13:06;;;;;;;65.70;8.07;;;;;;;;;;5072428;28;21007;-70
2022/08/28 02:15:35;;;;;;;65.30;8.77;;;;;;;;;;5072327;28;20450;-70
2022/08/28 02:18:03;;;;;;;63.30;7.27;;;;;;;;;;5071997;28;20513;-70
2022/08/28 02:20:31;;;;;;;67.20;9.10;;;;;;;;;;5072273;28;20451;-70
2022/08/28 02:22:58;;;;;;;64.63;8.37;;;;;;;;;;5072064;28;20542;-70
2022/08/28 02:25:26;;;;;;;64.73;8.13;;;;;;;;;;5072279;28;20443;-70
2022/08/28 02:27:53;;;;;;;63.77;7.87;;;;;;;;;;5072123;28;20509;-70
2022/08/28 02:30:20;;;;;;;65.27;7.63;;;;;;;;;;5072366;28;20443;-70
2022/08/28 02:32:50;;;;;;;68.20;9.13;;;;;;;;;;5072078;28;20483;-70
2022/08/28 02:35:17;;;;;;;67.10;7.53;;;;;;;;;;5072055;28;20966;-69
2022/08/28 02:37:45;;;;;;;65.40;7.47;;;;;;;;;;5072142;28;20451;-70
2022/08/28 02:40:13;;;;;;;65.30;8.20;;;;;;;;;;5071434;28;20990;-70
2022/08/28 02:42:41;;;;;;;66.10;7.90;;;;;;;;;;5071765;28;20986;-70
2022/08/28 02:45:10;;;;;;;65.97;7.53;;;;;;;;;;5072127;28;20844;-70
2022/08/28 02:47:37;;;;;;;66.93;7.73;;;;;;;;;;5072015;28;20489;-70
2022/08/28 02:50:07;;;;;;;65.70;7.33;;;;;;;;;;5071814;28;20546;-70
2022/08/28 02:52:35;;;;;;;83.43;8.80;;;;;;;;;;5071954;28;20474;-70
2022/08/28 02:55:02;;;;;;;63.97;7.33;;;;;;;;;;5075562;28;20453;-70
2022/08/28 02:57:30;;;;;;;66.07;7.47;;;;;;;;;;5075527;28;20455;-70
2022/08/28 02:59:58;;;;;;;65.57;7.87;;;;;;;;;;5075263;28;20944;-70
2022/08/28 03:02:25;;;;;;;65.77;8.53;;;;;;;;;;5075508;28;20983;-70
2022/08/28 03:04:53;;;;;;;65.00;8.13;;;;;;;;;;5075445;28;20451;-70
2022/08/28 03:07:21;;;;;;;66.43;8.37;;;;;;;;;;5075314;28;21025;-70
2022/08/28 03:09:49;;;;;;;65.07;7.57;;;;;;;;;;5074920;28;20452;-70
2022/08/28 03:12:16;;;;;;;66.87;8.00;;;;;;;;;;5075035;28;20497;-70
2022/08/28 03:14:43;;;;;;;62.70;7.10;;;;;;;;;;5075443;28;20451;-70
2022/08/28 03:17:11;;;;;;;68.17;9.67;;;;;;;;;;5075404;28;20525;-70
2022/08/28 03:19:38;;;;;;;66.60;9.97;;;;;;;;;;5074984;28;20447;-70
2022/08/28 03:22:05;;;;;;;69.27;9.30;;;;;;;;;;5075429;28;20490;-70
2022/08/28 03:24:33;;;;;;;65.30;10.00;;;;;;;;;;5075152;28;20443;-70
2022/08/28 03:27:00;;;;;;;66.67;9.10;;;;;;;;;;5074986;28;20447;-70
2022/08/28 03:29:27;;;;;;;67.43;9.03;;;;;;;;;;5074853;28;20867;-70
2022/08/28 03:31:55;;;;;;;65.57;8.23;;;;;;;;;;5074720;28;20479;-70
2022/08/28 03:34:22;;;;;;;65.33;9.10;;;;;;;;;;5075134;28;20482;-71
2022/08/28 03:36:49;;;;;;;67.70;8.07;;;;;;;;;;5074994;28;20458;-70
2022/08/28 03:39:16;;;;;;;64.97;7.53;;;;;;;;;;5074638;28;20446;-71
2022/08/28 03:41:44;;;;;;;65.80;8.17;;;;;;;;;;5074916;28;20457;-70
2022/08/28 03:44:12;;;;;;;67.87;8.57;;;;;;;;;;5075054;28;20537;-70
2022/08/28 03:46:39;;;;;;;69.70;9.60;;;;;;;;;;5074910;28;20443;-70
2022/08/28 03:49:06;;;;;;;70.13;9.03;;;;;;;;;;5075184;28;20876;-70
2022/08/28 03:51:34;;;;;;;65.87;8.20;;;;;;;;;;5075233;28;20443;-70
2022/08/28 03:54:02;;;;;;;69.23;9.90;;;;;;;;;;5075001;28;20606;-71
2022/08/28 03:56:31;;;;;;;66.33;9.57;;;;;;;;;;5075342;28;21038;-70
2022/08/28 03:59:01;;;;;;;64.00;7.40;;;;;;;;;;5075011;28;20451;-70
2022/08/28 04:01:28;;;;;;;63.70;8.17;;;;;;;;;;5075347;28;21027;-70
2022/08/28 04:03:55;;;;;;;67.13;7.27;;;;;;;;;;5075563;28;20516;-70
2022/08/28 04:06:22;;;;;;;64.80;7.67;;;;;;;;;;5075804;28;21013;-70
2022/08/28 04:08:50;;;;;;;64.87;8.90;;;;;;;;;;5075025;28;20574;-70
2022/08/28 04:11:17;;;;;;;65.97;10.20;;;;;;;;;;5075526;28;20458;-70
2022/08/28 04:13:45;;;;;;;65.37;8.97;;;;;;;;;;5075225;28;20471;-70
2022/08/28 04:16:18;;;;;;;65.70;8.50;;;;;;;;;;5075163;28;20494;-70
2022/08/28 04:18:46;;;;;;;65.20;8.20;;;;;;;;;;5075379;28;20448;-71
2022/08/28 04:21:14;;;;;;;64.40;8.13;;;;;;;;;;5074588;28;20443;-70
2022/08/28 04:23:42;;;;;;;64.63;8.40;;;;;;;;;;5074924;28;20467;-70
2022/08/28 04:26:10;;;;;;;65.13;8.03;;;;;;;;;;5075071;28;20846;-70
2022/08/28 04:28:37;;;;;;;65.70;9.67;;;;;;;;;;5073791;28;20522;-70
2022/08/28 04:31:04;;;;;;;65.53;8.87;;;;;;;;;;5074062;28;20445;-70
2022/08/28 04:33:33;;;;;;;65.70;8.47;;;;;;;;;;5074188;28;20475;-70
2022/08/28 04:36:02;;;;;;;65.50;8.20;;;;;;;;;;5075656;28;20451;-70
2022/08/28 04:38:29;;;;;;;67.10;9.73;;;;;;;;;;5075755;28;20979;-70
2022/08/28 04:40:57;;;;;;;66.03;8.60;;;;;;;;;;5075081;28;20527;-70
2022/08/28 04:43:24;;;;;;;65.23;8.57;;;;;;;;;;5075164;28;20471;-70
2022/08/28 04:45:51;;;;;;;67.87;7.93;;;;;;;;;;5074915;28;20447;-70
2022/08/28 04:48:18;;;;;;;66.50;9.30;;;;;;;;;;5074904;28;20493;-70
2022/08/28 04:50:47;;;;;;;65.80;7.17;;;;;;;;;;5075043;28;20818;-70
2022/08/28 04:53:16;;;;;;;66.23;8.03;;;;;;;;;;5075174;28;20935;-70
2022/08/28 04:55:44;;;;;;;65.67;9.07;;;;;;;;;;5075109;28;20511;-70
2022/08/28 04:58:11;;;;;;;69.07;9.27;;;;;;;;;;5075051;28;20443;-71
2022/08/28 05:00:39;;;;;;;65.43;8.53;;;;;;;;;;5074770;28;20545;-70
2022/08/28 05:03:06;;;;;;;68.10;8.90;;;;;;;;;;5074395;28;20499;-70
2022/08/28 05:05:33;;;;;;;64.07;8.03;;;;;;;;;;5075320;28;20454;-70
2022/08/28 05:08:02;;;;;;;65.90;9.60;;;;;;;;;;5074804;28;20479;-70
2022/08/28 05:10:29;;;;;;;65.30;7.57;;;;;;;;;;5074254;28;20961;-70
2022/08/28 05:12:56;;;;;;;62.83;6.30;;;;;;;;;;5075027;28;20558;-70
2022/08/28 05:15:23;;;;;;;67.80;8.63;;;;;;;;;;5074787;28;20556;-70
2022/08/28 05:17:50;;;;;;;64.07;7.57;;;;;;;;;;5074991;28;20443;-70
2022/08/28 05:20:18;;;;;;;66.20;9.10;;;;;;;;;;5074762;28;20541;-70
2022/08/28 05:22:45;;;;;;;68.10;10.07;;;;;;;;;;5074706;28;20468;-70
2022/08/28 05:25:14;;;;;;;64.90;8.23;;;;;;;;;;5074670;28;20542;-70
2022/08/28 05:27:41;;;;;;;63.93;7.80;;;;;;;;;;5073806;28;20458;-70
2022/08/28 05:30:09;;;;;;;69.70;8.67;;;;;;;;;;5073679;28;20856;-70
2022/08/28 05:32:37;;;;;;;64.27;8.23;;;;;;;;;;5073286;28;20480;-70
2022/08/28 05:35:04;;;;;;;67.07;9.63;;;;;;;;;;5073790;28;20455;-71
2022/08/28 05:37:31;;;;;;;65.17;7.53;;;;;;;;;;5073818;28;20503;-70
2022/08/28 05:39:58;;;;;;;64.50;8.23;;;;;;;;;;5073591;28;20809;-70
2022/08/28 05:42:27;;;;;;;63.40;7.70;;;;;;;;;;5074847;28;20544;-70
2022/08/28 05:44:57;;;;;;;65.70;7.30;;;;;;;;;;5074472;28;20826;-71
2022/08/28 05:47:24;;;;;;;65.17;8.00;;;;;;;;;;5074535;28;20554;-70
2022/08/28 05:49:51;;;;;;;66.33;8.23;;;;;;;;;;5073749;28;20553;-69
2022/08/28 05:52:19;;;;;;;65.63;9.20;;;;;;;;;;5074103;28;20466;-70
2022/08/28 05:54:46;;;;;;;66.87;8.47;;;;;;;;;;5074136;28;20505;-70
2022/08/28 05:57:13;;;;;;;66.47;9.47;;;;;;;;;;5073779;28;20446;-70
2022/08/28 05:59:41;;;;;;;63.47;7.13;;;;;;;;;;5072730;28;20452;-70
2022/08/28 06:02:08;;;;;;;67.30;9.80;;;;;;;;;;5073320;28;20494;-69
2022/08/28 06:04:36;;;;;;;64.80;8.40;;;;;;;;;;5072059;28;20454;-68
2022/08/28 06:07:04;;;;;;;63.67;8.03;;;;;;;;;;5072277;28;20542;-68
2022/08/28 06:09:31;;;;;;;62.77;7.20;;;;;;;;;;5072442;28;20479;-70
2022/08/28 06:12:01;;;;;;;66.60;8.90;;;;;;;;;;5073099;28;20831;-70
2022/08/28 06:14:28;;;;;;;65.20;7.20;;;;;;;;;;5073402;28;20451;-70
2022/08/28 06:16:57;;;;;;;63.50;7.10;;;;;;;;;;5073815;28;20452;-70
2022/08/28 06:19:25;;;;;;;63.67;8.00;;;;;;;;;;5073065;28;20465;-70
2022/08/28 06:21:55;;;;;;;65.57;6.53;;;;;;;;;;5073148;28;20471;-70
2022/08/28 06:24:22;;;;;;;64.23;7.60;;;;;;;;;;5072595;28;20500;-70
2022/08/28 06:26:50;;;;;;;69.37;7.70;;;;;;;;;;5072517;28;20550;-70
2022/08/28 06:29:18;;;;;;;64.23;8.90;;;;;;;;;;5075564;28;20530;-70
2022/08/28 06:31:45;;;;;;;65.07;8.00;;;;;;;;;;5077191;28;20995;-71
2022/08/28 06:34:14;;;;;;;64.37;6.83;;;;;;;;;;5077565;28;20444;-70
2022/08/28 06:36:43;;;;;;;66.93;9.10;;;;;;;;;;5077516;28;20534;-70
2022/08/28 06:39:11;;;;;;;64.67;8.20;;;;;;;;;;5077208;28;20444;-70
2022/08/28 06:41:41;;;;;;;63.07;7.70;;;;;;;;;;5076630;28;20455;-70
2022/08/28 06:44:09;;;;;;;64.30;8.37;;;;;;;;;;5078011;28;20873;-70
2022/08/28 06:46:36;;;;;;;62.80;6.40;;;;;;;;;;5076937;28;20534;-70
2022/08/28 06:49:04;;;;;;;64.47;6.60;;;;;;;;;;5075746;28;20506;-70
2022/08/28 06:51:32;;;;;;;68.30;8.60;;;;;;;;;;5077305;28;20453;-70
2022/08/28 06:53:59;;;;;;;63.17;6.90;;;;;;;;;;5077229;28;20464;-70
2022/08/28 06:56:27;;;;;;;64.67;6.40;;;;;;;;;;5077592;28;20447;-70
2022/08/28 06:58:54;;;;;;;65.97;8.50;;;;;;;;;;5077773;28;20443;-70
2022/08/28 07:01:23;;;;;;;62.37;6.47;;;;;;;;;;5077186;28;20453;-70
2022/08/28 07:03:50;;;;;;;62.17;6.10;;;;;;;;;;5076442;28;20471;-68
2022/08/28 07:06:18;;;;;;;61.17;6.03;;;;;;;;;;5077066;28;20454;-68
2022/08/28 07:08:47;;;;;;;65.57;7.23;;;;;;;;;;5076060;28;20911;-67
2022/08/28 07:11:16;;;;;;;61.47;6.17;;;;;;;;;;5076801;28;20530;-68
2022/08/28 07:13:43;;;;;;;61.07;5.93;;;;;;;;;;5078015;28;20563;-68
2022/08/28 07:16:12;;;;;;;62.30;6.00;;;;;;;;;;5076629;28;20454;-68
2022/08/28 07:18:39;;;;;;;60.30;5.17;;;;;;;;;;5077440;28;20439;-69
2022/08/28 07:21:07;;;;;;;61.00;5.47;;;;;;;;;;5077697;28;20902;-69
2022/08/28 07:23:35;;;;;;;62.40;5.63;;;;;;;;;;5077173;28;20469;-69
2022/08/28 07:26:05;;;;;;;61.97;5.20;;;;;;;;;;5077962;28;20451;-68
2022/08/28 07:28:32;;;;;;;62.80;5.90;;;;;;;;;;5077588;28;20487;-68
2022/08/28 07:31:00;;;;;;;67.27;5.97;;;;;;;;;;5077841;28;20542;-69
2022/08/28 07:33:28;;;;;;;62.47;6.57;;;;;;;;;;5077088;28;20510;-69
2022/08/28 07:35:55;;;;;;;63.07;6.60;;;;;;;;;;5076697;28;20458;-69
2022/08/28 07:38:24;;;;;;;64.07;7.00;;;;;;;;;;5075333;28;20542;-69
2022/08/28 07:40:51;;;;;;;60.17;4.70;;;;;;;;;;5076291;28;20454;-69
2022/08/28 07:46:05;;;;;;;60.90;5.57;;;;;;;;;;5076815;28;20618;-69
2022/08/28 07:48:33;;;;;;;61.97;5.07;;;;;;;;;;5076791;28;20498;-69
2022/08/28 07:51:01;;;;;;;61.83;6.00;;;;;;;;;;5076852;28;20563;-69
2022/08/28 07:53:28;;;;;;;61.53;6.17;;;;;;;;;;5076492;28;20474;-69
2022/08/28 07:55:55;;;;;;;66.63;6.53;;;;;;;;;;5076543;28;20554;-70
2022/08/28 07:58:25;;;;;;;61.63;6.07;;;;;;;;;;5077029;28;20459;-72
2022/08/28 08:00:52;;;;;;;60.60;4.63;;;;;;;;;;5076436;28;20454;-70
2022/08/28 08:03:19;;;;;;;61.03;5.53;;;;;;;;;;5076370;28;20471;-70
2022/08/28 08:05:51;;;;;;;59.97;5.17;;;;;;;;;;5074668;28;20844;-69
2022/08/28 08:08:19;;;;;;;61.37;6.30;;;;;;;;;;5076162;28;20838;-69
2022/08/28 08:10:46;;;;;;;63.00;5.53;;;;;;;;;;5076450;28;20480;-69
2022/08/28 08:13:13;;;;;;;64.80;6.50;;;;;;;;;;5075838;28;20467;-69
2022/08/28 08:15:42;;;;;;;61.53;5.50;;;;;;;;;;5075826;28;20544;-69
2022/08/28 08:18:09;;;;;;;63.90;7.00;;;;;;;;;;5075258;28;20840;-70
2022/08/28 08:20:36;;;;;;;60.00;4.40;;;;;;;;;;5076909;28;20436;-69
2022/08/28 08:23:03;;;;;;;61.63;5.50;;;;;;;;;;5077250;28;20558;-69
2022/08/28 08:25:30;;;;;;;60.67;5.10;;;;;;;;;;5077258;28;20454;-69
2022/08/28 08:27:57;;;;;;;61.70;5.67;;;;;;;;;;5077115;28;20812;-70
2022/08/28 08:30:24;;;;;;;60.17;4.67;;;;;;;;;;5076301;28;20494;-69
2022/08/28 08:32:53;;;;;;;61.63;5.87;;;;;;;;;;5075604;28;21028;-68
2022/08/28 08:35:20;;;;;;;64.80;6.13;;;;;;;;;;5075351;28;20479;-69
2022/08/28 08:37:47;;;;;;;61.60;5.90;;;;;;;;;;5075339;28;20455;-70
2022/08/28 08:40:18;;;;;;;62.07;5.50;;;;;;;;;;5074390;28;20452;-69
2022/08/28 08:42:46;;;;;;;60.87;5.47;;;;;;;;;;5075039;28;20531;-69
2022/08/28 08:45:15;;;;;;;63.33;6.37;;;;;;;;;;5074921;28;20452;-69
2022/08/28 08:47:44;;;;;;;60.53;5.10;;;;;;;;;;5076370;28;20447;-69
2022/08/28 08:50:16;;;;;;;62.67;5.70;;;;;;;;;;5074480;28;20483;-69
2022/08/28 08:52:48;;;;;;;63.50;5.80;;;;;;;;;;5075116;28;20470;-69
2022/08/28 08:55:22;;;;;;;62.70;6.57;;;;;;;;;;5075852;28;20452;-69
2022/08/28 08:57:52;;;;;;;63.80;5.20;;;;;;;;;;5075385;28;20541;-70
2022/08/28 09:00:20;;;;;;;60.93;5.10;;;;;;;;;;5075744;28;20440;-69
2022/08/28 09:02:50;;;;;;;61.03;5.20;;;;;;;;;;5075758;28;20469;-69
2022/08/28 09:05:21;;;;;;;61.80;5.77;;;;;;;;;;5075818;28;20444;-70
2022/08/28 09:07:52;;;;;;;60.53;5.27;;;;;;;;;;5075380;28;20834;-70
2022/08/28 09:10:19;;;;;;;59.27;4.73;;;;;;;;;;5075111;28;20485;-70
2022/08/28 09:12:51;;;;;;;60.50;4.80;;;;;;;;;;5074601;28;20528;-70
2022/08/28 09:15:21;;;;;;;61.70;5.63;;;;;;;;;;5075233;28;20491;-70
2022/08/28 09:17:51;;;;;;;68.63;6.70;;;;;;;;;;5075436;28;20448;-68
2022/08/28 09:20:22;;;;;;;62.60;5.10;;;;;;;;;;5075215;28;20601;-70
2022/08/28 09:22:50;;;;;;;60.87;4.77;;;;;;;;;;5074809;28;20471;-70
2022/08/28 09:25:32;;;;;;;63.07;5.33;;;;;;;;;;5074507;28;20507;-69
2022/08/28 09:28:06;;;;;;;60.73;5.80;;;;;;;;;;5074839;28;20458;-69
2022/08/28 09:30:33;;;;;;;62.90;6.80;;;;;;;;;;5074130;28;20483;-69
2022/08/28 09:33:01;;;;;;;62.70;5.37;;;;;;;;;;5073792;28;21031;-69
2022/08/28 09:35:30;;;;;;;62.20;6.20;;;;;;;;;;5075247;28;20451;-69
2022/08/28 09:38:16;;;;;;;62.37;4.73;;;;;;;;;;5074764;28;20435;-69
2022/08/28 09:43:32;;;;;;;65.40;6.20;;;;;;;;;;5074328;28;20518;-69
2022/08/28 09:46:01;;;;;;;63.97;6.93;;;;;;;;;;5074890;28;20451;-70
2022/08/28 09:48:33;;;;;;;61.77;5.70;;;;;;;;;;5075455;28;20448;-68
2022/08/28 09:51:03;;;;;;;60.30;4.70;;;;;;;;;;5075524;28;20482;-69
2022/08/28 09:53:31;;;;;;;59.20;4.10;;;;;;;;;;5074989;28;20471;-70
2022/08/28 09:56:06;;;;;;;59.77;4.53;;;;;;;;;;5074211;28;20965;-69
2022/08/28 09:58:36;;;;;;;61.90;5.33;;;;;;;;;;5074794;28;20713;-69
2022/08/28 10:01:08;;;;;;;60.20;4.70;;;;;;;;;;5074740;28;21045;-69
2022/08/28 10:03:38;;;;;;;60.00;4.73;;;;;;;;;;5074805;28;20570;-70
2022/08/28 10:06:09;;;;;;;62.13;4.60;;;;;;;;;;5074222;28;20459;-70
2022/08/28 10:08:45;;;;;;;60.00;4.80;;;;;;;;;;5073452;28;20455;-70
2022/08/28 10:11:16;;;;;;;60.77;4.57;;;;;;;;;;5074467;28;20475;-70
2022/08/28 10:13:47;;;;;;;62.37;4.47;;;;;;;;;;5074657;28;20915;-70
2022/08/28 10:16:21;;;;;;;59.50;4.23;;;;;;;;;;5074121;28;20519;-69
2022/08/28 10:18:51;;;;;;;59.83;4.37;;;;;;;;;;5073640;28;20451;-69
2022/08/28 10:21:22;;;;;;;61.50;5.00;;;;;;;;;;5074351;28;20455;-69
2022/08/28 10:24:10;;;;;;;59.50;4.00;;;;;;;;;;5074492;28;20795;-70
2022/08/28 10:26:42;;;;;;;59.27;4.07;;;;;;;;;;5069403;28;20455;-70
2022/08/28 10:29:18;;;;;;;60.50;4.90;;;;;;;;;;5074274;28;20447;-69
2022/08/28 10:31:52;;;;;;;60.67;4.53;;;;;;;;;;5074397;28;20450;-69
2022/08/28 10:34:31;;;;;;;59.93;4.30;;;;;;;;;;5074656;28;20454;-69
2022/08/28 10:37:08;;;;;;;59.53;4.07;;;;;;;;;;5074383;28;20454;-70
2022/08/28 10:39:43;;;;;;;60.07;4.90;;;;;;;;;;5073589;28;20565;-69
2022/08/28 10:42:10;;;;;;;63.00;4.80;;;;;;;;;;5074142;28;20858;-70
2022/08/28 10:44:39;;;;;;;60.20;4.67;;;;;;;;;;5073742;28;20447;-69
2022/08/28 10:47:07;;;;;;;59.07;3.80;;;;;;;;;;5074371;28;20521;-70
2022/08/28 10:49:35;;;;;;;61.53;4.93;;;;;;;;;;5073706;28;20476;-70
2022/08/28 10:52:07;;;;;;;61.60;4.77;;;;;;;;;;5073421;28;20474;-70
2022/08/28 10:54:37;;;;;;;59.97;3.70;;;;;;;;;;5073591;28;20546;-70
2022/08/28 10:57:08;;;;;;;60.00;4.23;;;;;;;;;;5073338;28;20443;-69
2022/08/28 10:59:35;;;;;;;59.07;3.77;;;;;;;;;;5072358;28;20450;-69
2022/08/28 11:02:05;;;;;;;58.30;3.10;;;;;;;;;;5071555;28;20524;-70
2022/08/28 11:04:32;;;;;;;59.00;3.67;;;;;;;;;;5072193;28;20449;-70
2022/08/28 11:07:01;;;;;;;59.87;3.93;;;;;;;;;;5071410;28;20443;-70
2022/08/28 11:09:34;;;;;;;58.47;3.50;;;;;;;;;;5071159;28;20526;-70
2022/08/28 11:12:02;;;;;;;57.90;4.10;;;;;;;;;;5071960;28;20481;-70
2022/08/28 11:14:32;;;;;;;58.27;3.70;;;;;;;;;;5073022;28;20959;-70
2022/08/28 11:17:01;;;;;;;59.33;4.50;;;;;;;;;;5075171;28;20532;-70
2022/08/28 11:19:42;;;;;;;57.67;3.40;;;;;;;;;;5074696;28;20927;-70
2022/08/28 11:22:11;;;;;;;59.07;3.93;;;;;;;;;;5075553;28;20471;-70
2022/08/28 11:24:45;;;;;;;59.27;3.80;;;;;;;;;;5075413;28;20500;-70
2022/08/28 11:27:18;;;;;;;58.43;3.40;;;;;;;;;;5075381;28;20456;-70
2022/08/28 11:30:00;;;;;;;57.70;3.60;;;;;;;;;;5074428;28;20458;-70
2022/08/28 11:32:28;;;;;;;58.50;3.47;;;;;;;;;;5074802;28;20479;-70
2022/08/28 11:34:56;;;;;;;57.50;3.73;;;;;;;;;;5075068;28;20451;-70
2022/08/28 11:37:37;;;;;;;57.80;3.60;;;;;;;;;;5075407;28;20547;-70
2022/08/28 11:40:18;;;;;;;59.77;4.27;;;;;;;;;;5074866;28;20450;-70
2022/08/28 11:42:47;;;;;;;58.47;3.50;;;;;;;;;;5074764;28;20475;-70
2022/08/28 11:45:19;;;;;;;58.17;3.50;;;;;;;;;;5075159;28;20459;-69
2022/08/28 11:47:55;;;;;;;57.87;3.30;;;;;;;;;;5075749;28;20509;-70
2022/08/28 11:50:27;;;;;;;58.37;3.47;;;;;;;;;;5075339;28;20522;-70
2022/08/28 11:53:14;;;;;;;58.33;3.30;;;;;;;;;;5075744;28;20467;-70
2022/08/28 11:56:08;;;;;;;59.40;4.10;;;;;;;;;;5075671;28;20454;-70
2022/08/28 11:58:39;;;;;;;57.70;3.50;;;;;;;;;;5074370;28;20466;-70
2022/08/28 12:01:08;;;;;;;58.40;4.20;;;;;;;;;;5074626;28;20502;-69
2022/08/28 12:03:37;;;;;;;58.03;3.17;;;;;;;;;;5074108;28;20987;-70
2022/08/28 12:06:05;;;;;;;59.80;3.87;;;;;;;;;;5074538;28;20451;-69
2022/08/28 12:08:51;;;;;;;58.17;3.53;;;;;;;;;;5074001;28;20447;-70
2022/08/28 12:11:33;;;;;;;57.40;3.30;;;;;;;;;;5074405;28;21024;-70
2022/08/28 12:14:01;;;;;;;59.83;4.40;;;;;;;;;;5074265;28;20451;-70
2022/08/28 12:16:28;;;;;;;58.10;3.30;;;;;;;;;;5074937;28;20447;-70
2022/08/28 12:18:58;;;;;;;58.97;4.20;;;;;;;;;;5075615;28;20439;-70
2022/08/28 12:21:26;;;;;;;60.60;3.70;;;;;;;;;;5075120;28;20812;-69
2022/08/28 12:23:58;;;;;;;59.10;3.67;;;;;;;;;;5074960;28;20549;-70
2022/08/28 12:26:27;;;;;;;58.47;3.70;;;;;;;;;;5072933;28;20450;-69
2022/08/28 12:28:56;;;;;;;58.20;3.20;;;;;;;;;;5074023;28;20518;-69
2022/08/28 12:34:30;;;;;;;60.90;4.03;;;;;;;;;;5073842;28;20456;-70
2022/08/28 12:36:59;;;;;;;57.80;3.10;;;;;;;;;;5073609;28;20451;-70
2022/08/28 12:39:26;;;;;;;57.50;3.53;;;;;;;;;;5073630;28;20454;-68
2022/08/28 12:41:54;;;;;;;58.30;3.20;;;;;;;;;;5074395;28;20471;-69
2022/08/28 12:44:24;;;;;;;57.50;3.33;;;;;;;;;;5074426;28;20457;-68
2022/08/28 12:46:51;;;;;;;57.73;3.43;;;;;;;;;;5074192;28;20454;-69
2022/08/28 12:49:31;;;;;;;58.50;3.60;;;;;;;;;;5072868;28;20447;-69
2022/08/28 12:52:08;;;;;;;59.27;3.70;;;;;;;;;;5073612;28;20486;-68
2022/08/28 12:54:35;;;;;;;58.30;3.70;;;;;;;;;;5074064;28;20531;-71
2022/08/28 12:57:04;;;;;;;58.10;3.30;;;;;;;;;;5073493;28;20447;-70
2022/08/28 12:59:35;;;;;;;57.60;3.30;;;;;;;;;;5073151;28;20451;-70
2022/08/28 13:02:02;;;;;;;57.37;3.10;;;;;;;;;;5072986;28;20463;-69
2022/08/28 13:04:32;;;;;;;57.60;3.40;;;;;;;;;;5074555;28;20444;-70
2022/08/28 13:07:02;;;;;;;57.70;3.40;;;;;;;;;;5073445;28;20454;-70
2022/08/28 13:09:29;;;;;;;58.80;3.63;;;;;;;;;;5073837;28;20830;-68
2022/08/28 13:11:56;;;;;;;57.67;3.33;;;;;;;;;;5074109;28;20511;-67
2022/08/28 13:14:36;;;;;;;57.70;3.03;;;;;;;;;;5072830;28;20469;-68
2022/08/28 13:17:04;;;;;;;57.90;3.40;;;;;;;;;;5073059;28;20465;-68
2022/08/28 13:19:33;;;;;;;57.20;2.80;;;;;;;;;;5073641;28;20443;-68
2022/08/28 13:22:01;;;;;;;58.60;3.07;;;;;;;;;;5073230;28;20463;-68
2022/08/28 13:24:39;;;;;;;57.90;3.57;;;;;;;;;;5072968;28;20498;-68
2022/08/28 13:27:08;;;;;;;57.53;2.93;;;;;;;;;;5072843;28;20506;-68
2022/08/28 13:29:36;;;;;;;56.70;2.70;;;;;;;;;;5073057;28;20447;-68
2022/08/28 13:32:05;;;;;;;57.10;2.93;;;;;;;;;;5073478;28;21018;-69
2022/08/28 13:34:34;;;;;;;57.30;3.17;;;;;;;;;;5073244;28;20458;-68
2022/08/28 13:37:02;;;;;;;58.07;3.27;;;;;;;;;;5072105;28;20453;-68
2022/08/28 13:39:30;;;;;;;57.90;3.57;;;;;;;;;;5072493;28;20451;-69
2022/08/28 13:41:58;;;;;;;57.80;3.50;;;;;;;;;;5072230;28;20502;-69
2022/08/28 13:44:30;;;;;;;57.07;2.57;;;;;;;;;;5072458;28;20525;-69
2022/08/28 13:46:58;;;;;;;57.00;3.23;;;;;;;;;;5072679;28;20447;-69
2022/08/28 13:49:26;;;;;;;57.50;3.10;;;;;;;;;;5072619;28;20455;-69
2022/08/28 13:51:55;;;;;;;57.20;3.20;;;;;;;;;;5073763;28;20500;-68
2022/08/28 13:54:22;;;;;;;58.17;3.03;;;;;;;;;;5073508;28;20815;-69
2022/08/28 13:56:50;;;;;;;57.80;3.30;;;;;;;;;;5073201;28;20792;-69
2022/08/28 13:59:18;;;;;;;58.17;2.90;;;;;;;;;;5075561;28;20458;-70
2022/08/28 14:04:30;;;;;;;58.60;2.97;;;;;;;;;;5073036;28;21001;-69
2022/08/28 14:06:59;;;;;;;58.30;3.00;;;;;;;;;;5073753;28;20530;-68
2022/08/28 14:09:26;;;;;;;58.70;3.70;;;;;;;;;;5073686;28;20448;-69
2022/08/28 14:11:54;;;;;;;58.10;2.97;;;;;;;;;;5073804;28;20483;-69
2022/08/28 14:14:21;;;;;;;57.70;2.90;;;;;;;;;;5073326;28;20451;-69
2022/08/28 14:16:49;;;;;;;58.60;3.60;;;;;;;;;;5074073;28;20446;-68
2022/08/28 14:19:16;;;;;;;58.70;3.47;;;;;;;;;;5073009;28;20450;-68
2022/08/28 14:21:43;;;;;;;58.90;3.90;;;;;;;;;;5072202;28;20444;-68
2022/08/28 14:24:12;;;;;;;58.83;3.37;;;;;;;;;;5072083;28;20939;-68
2022/08/28 14:26:39;;;;;;;59.30;3.83;;;;;;;;;;5072145;28;20447;-68
2022/08/28 14:29:07;;;;;;;58.40;3.30;;;;;;;;;;5072048;28;20449;-68
2022/08/28 14:31:35;;;;;;;58.27;3.10;;;;;;;;;;5072018;28;20479;-69
2022/08/28 14:34:03;;;;;;;58.87;3.67;;;;;;;;;;5073182;28;20473;-68
2022/08/28 14:36:31;;;;;;;58.90;3.30;;;;;;;;;;5072941;28;20452;-70
2022/08/28 14:38:58;;;;;;;58.40;3.20;;;;;;;;;;5071698;28;20969;-68
2022/08/28 14:41:27;;;;;;;58.03;3.00;;;;;;;;;;5071940;28;20524;-69
2022/08/28 14:43:55;;;;;;;57.70;2.80;;;;;;;;;;5071966;28;20463;-68
2022/08/28 14:46:23;;;;;;;57.83;3.43;;;;;;;;;;5072894;28;20447;-68
2022/08/28 14:48:50;;;;;;;57.87;3.00;;;;;;;;;;5072628;28;20454;-69
2022/08/28 14:51:18;;;;;;;58.20;3.13;;;;;;;;;;5076847;28;20487;-68
2022/08/28 14:53:45;;;;;;;58.17;3.03;;;;;;;;;;5076551;28;20481;-68